METAR Formatted Surface Weather Observation
Issued by NWS

Home | Current Version | Previous Version | Text Only | Print | Product List | Glossary On
Versions: 1 2 3 4 5 6 7 8 9 10 11 12 13 14 15 16 17 18 19 20
000
SAUS41 KAKQ 041936
MTRNUI
SPECI KNUI 041935Z AUTO 13007KT 8SM SCT020 BKN041 27/22 A2989 RMK
AO2 T02670222



USA.gov is the U.S. government's official web portal to all federal, state and local government web resources and services.